createdAt,value
2019-05-26T00:00:23.840Z,8.16
2019-05-26T00:01:23.807Z,8.02
2019-05-26T00:02:23.761Z,7.89
2019-05-26T00:03:23.722Z,7.92
2019-05-26T00:04:23.690Z,7.93
2019-05-26T00:05:23.651Z,8.04
2019-05-26T00:06:23.618Z,7.92
2019-05-26T00:07:30.475Z,7.87
2019-05-26T00:08:23.583Z,7.90
2019-05-26T00:09:23.542Z,7.86
2019-05-26T00:10:23.503Z,7.89
2019-05-26T00:11:23.447Z,7.98
2019-05-26T00:12:23.436Z,7.90
2019-05-26T00:13:23.417Z,7.95
2019-05-26T00:14:23.338Z,8.02
2019-05-26T00:15:23.325Z,7.80
2019-05-26T00:16:23.271Z,7.77
2019-05-26T00:17:23.208Z,7.90
2019-05-26T00:18:23.169Z,7.98
2019-05-26T00:19:23.128Z,8.00
2019-05-26T00:20:23.080Z,8.20
2019-05-26T00:21:23.039Z,8.22
2019-05-26T00:22:23.015Z,8.19
2019-05-26T00:23:22.961Z,8.20
2019-05-26T00:24:22.955Z,8.11
2019-05-26T00:25:22.894Z,7.86
2019-05-26T00:26:22.837Z,7.87
2019-05-26T00:27:22.795Z,7.93
2019-05-26T00:28:22.762Z,7.90
2019-05-26T00:29:22.723Z,7.74
2019-05-26T00:30:22.683Z,7.67
2019-05-26T00:31:22.650Z,7.61
2019-05-26T00:32:22.607Z,7.50
2019-05-26T00:33:22.574Z,7.48
2019-05-26T00:34:22.537Z,7.52
2019-05-26T00:35:22.502Z,7.53
2019-05-26T00:36:22.454Z,7.55
2019-05-26T00:37:22.416Z,7.40
2019-05-26T00:38:22.371Z,7.34
2019-05-26T00:39:22.333Z,7.31
2019-05-26T00:40:22.320Z,7.46
2019-05-26T00:41:22.294Z,7.52
2019-05-26T00:42:22.256Z,7.57
2019-05-26T00:43:22.186Z,7.49
2019-05-26T00:44:22.168Z,7.55
2019-05-26T00:45:22.136Z,7.43
2019-05-26T00:46:22.070Z,7.39
2019-05-26T00:47:22.047Z,7.45
2019-05-26T00:48:21.998Z,7.49
2019-05-26T00:49:22.015Z,7.71
2019-05-26T00:50:21.986Z,7.80
2019-05-26T00:51:21.909Z,7.75
2019-05-26T00:52:21.859Z,7.74
2019-05-26T00:53:21.812Z,7.80
2019-05-26T00:54:21.792Z,7.89
2019-05-26T00:55:21.731Z,7.92
2019-05-26T00:56:21.713Z,7.86
2019-05-26T00:57:21.649Z,7.74
2019-05-26T00:58:21.610Z,7.72
2019-05-26T00:59:21.563Z,7.74
2019-05-26T01:00:21.521Z,7.75
2019-05-26T01:01:21.479Z,7.72
2019-05-26T01:02:21.443Z,7.69
2019-05-26T01:03:21.416Z,7.64
2019-05-26T01:04:21.359Z,7.64
2019-05-26T01:05:21.325Z,7.80
2019-05-26T01:06:21.287Z,7.95
2019-05-26T01:07:21.251Z,7.82
2019-05-26T01:08:21.206Z,7.68
2019-05-26T01:09:21.188Z,7.50
2019-05-26T01:10:21.131Z,7.57
2019-05-26T01:11:21.093Z,7.50
2019-05-26T01:12:21.069Z,7.55
2019-05-26T01:13:21.012Z,7.45
2019-05-26T01:14:20.981Z,7.40
2019-05-26T01:15:20.935Z,7.34
2019-05-26T01:16:20.927Z,7.42
2019-05-26T01:17:20.888Z,7.27
2019-05-26T01:18:20.824Z,7.21
2019-05-26T01:19:20.804Z,7.13
2019-05-26T01:20:20.767Z,7.07
2019-05-26T01:21:20.746Z,7.10
2019-05-26T01:22:20.676Z,7.24
2019-05-26T01:23:20.629Z,7.37
2019-05-26T01:24:20.575Z,7.46
2019-05-26T01:25:20.621Z,7.48
2019-05-26T01:26:20.518Z,7.37
2019-05-26T01:27:20.523Z,7.50
2019-05-26T01:28:20.422Z,7.46
2019-05-26T01:29:20.388Z,7.60
2019-05-26T01:30:20.341Z,7.55
2019-05-26T01:31:20.298Z,7.30
2019-05-26T01:32:20.262Z,7.20
2019-05-26T01:33:20.220Z,7.15
2019-05-26T01:34:20.184Z,7.10
2019-05-26T01:35:20.144Z,7.06
2019-05-26T01:36:20.104Z,7.03
2019-05-26T01:37:20.062Z,6.85
2019-05-26T01:38:24.235Z,6.69
2019-05-26T01:39:19.988Z,6.52
2019-05-26T01:40:19.958Z,6.64
2019-05-26T01:41:19.920Z,6.77
2019-05-26T01:42:19.869Z,6.79
2019-05-26T01:43:19.851Z,6.77
2019-05-26T01:44:19.830Z,6.61
2019-05-26T01:45:19.821Z,6.69
2019-05-26T01:46:19.756Z,6.66
2019-05-26T01:47:19.739Z,6.69
2019-05-26T01:48:19.649Z,6.56
2019-05-26T01:49:19.605Z,6.46
2019-05-26T01:50:19.602Z,6.41
2019-05-26T01:51:19.588Z,6.43
2019-05-26T01:52:19.501Z,6.48
2019-05-26T01:53:19.450Z,6.36
2019-05-26T01:54:19.420Z,6.49
2019-05-26T01:55:19.375Z,6.51
2019-05-26T01:56:19.345Z,6.44
2019-05-26T01:57:19.303Z,6.28
2019-05-26T01:58:19.264Z,6.21
2019-05-26T01:59:19.196Z,6.08
2019-05-26T02:00:19.161Z,5.91
2019-05-26T02:01:19.116Z,5.89
2019-05-26T02:02:19.079Z,5.89
2019-05-26T02:03:19.041Z,5.93
2019-05-26T02:04:19.005Z,6.06
2019-05-26T02:05:18.960Z,6.17
2019-05-26T02:06:18.924Z,6.27
2019-05-26T02:07:18.889Z,6.30
2019-05-26T02:08:18.857Z,6.49
2019-05-26T02:09:18.814Z,6.58
2019-05-26T02:10:18.769Z,6.67
2019-05-26T02:11:18.728Z,6.64
2019-05-26T02:12:18.688Z,6.55
2019-05-26T02:13:18.648Z,6.55
2019-05-26T02:14:18.615Z,6.48
2019-05-26T02:15:18.573Z,6.44
2019-05-26T02:16:18.637Z,6.37
2019-05-26T02:17:18.500Z,6.46
2019-05-26T02:18:18.505Z,6.41
2019-05-26T02:19:18.439Z,6.46
2019-05-26T02:20:18.385Z,6.44
2019-05-26T02:21:18.338Z,6.56
2019-05-26T02:22:18.301Z,6.52
2019-05-26T02:23:18.260Z,6.54
2019-05-26T02:24:18.215Z,6.55
2019-05-26T02:25:18.183Z,6.54
2019-05-26T02:26:18.162Z,6.43
2019-05-26T02:27:18.111Z,6.40
2019-05-26T02:28:18.096Z,6.43
2019-05-26T02:29:18.052Z,6.31
2019-05-26T02:30:17.979Z,6.21
2019-05-26T02:31:17.932Z,6.18
2019-05-26T02:32:17.894Z,6.17
2019-05-26T02:33:17.926Z,6.11
2019-05-26T02:34:17.813Z,5.96
2019-05-26T02:35:17.774Z,5.94
2019-05-26T02:36:17.734Z,5.79
2019-05-26T02:37:17.698Z,5.78
2019-05-26T02:38:17.651Z,5.97
2019-05-26T02:39:17.612Z,6.14
2019-05-26T02:40:17.581Z,6.25
2019-05-26T02:41:17.533Z,6.22
2019-05-26T02:42:17.491Z,6.22
2019-05-26T02:43:17.458Z,6.15
2019-05-26T02:44:17.415Z,6.11
2019-05-26T02:45:17.376Z,6.03
2019-05-26T02:46:17.344Z,6.01
2019-05-26T02:47:17.361Z,6.08
2019-05-26T02:48:17.262Z,6.18
2019-05-26T02:49:17.240Z,6.27
2019-05-26T02:50:17.188Z,6.27
2019-05-26T02:51:17.191Z,6.27
2019-05-26T02:52:17.135Z,6.25
2019-05-26T02:53:17.093Z,6.21
2019-05-26T02:54:17.060Z,6.19
2019-05-26T02:55:16.998Z,6.18
2019-05-26T02:56:16.986Z,6.21
2019-05-26T02:57:16.898Z,6.28
2019-05-26T02:58:16.932Z,6.22
2019-05-26T02:59:16.832Z,6.40
2019-05-26T03:00:16.796Z,6.40
2019-05-26T03:01:16.736Z,6.22
2019-05-26T03:02:16.700Z,6.21
2019-05-26T03:03:16.669Z,6.08
2019-05-26T03:04:16.620Z,6.18
2019-05-26T03:05:16.576Z,6.19
2019-05-26T03:06:16.540Z,6.18
2019-05-26T03:07:16.547Z,6.12
2019-05-26T03:08:16.453Z,5.94
2019-05-26T03:09:22.429Z,6.01
2019-05-26T03:10:16.378Z,6.01
2019-05-26T03:11:16.348Z,6.11
2019-05-26T03:12:16.300Z,6.22
2019-05-26T03:13:16.258Z,6.04
2019-05-26T03:14:16.217Z,6.18
2019-05-26T03:15:16.193Z,6.03
2019-05-26T03:16:16.138Z,6.04
2019-05-26T03:17:16.118Z,5.97
2019-05-26T03:18:16.065Z,5.83
2019-05-26T03:19:16.029Z,5.93
2019-05-26T03:20:16.006Z,6.06
2019-05-26T03:21:15.972Z,6.25
2019-05-26T03:22:15.930Z,6.17
2019-05-26T03:23:15.903Z,6.25
2019-05-26T03:24:15.865Z,6.21
2019-05-26T03:25:15.779Z,6.27
2019-05-26T03:26:15.794Z,6.21
2019-05-26T03:27:15.729Z,6.17
2019-05-26T03:28:15.684Z,6.22
2019-05-26T03:29:15.629Z,6.25
2019-05-26T03:30:15.639Z,6.36
2019-05-26T03:31:15.554Z,6.43
2019-05-26T03:32:15.493Z,6.49
2019-05-26T03:33:15.457Z,6.44
2019-05-26T03:34:15.450Z,6.41
2019-05-26T03:35:15.404Z,6.56
2019-05-26T03:36:15.336Z,6.41
2019-05-26T03:37:15.303Z,6.66
2019-05-26T03:38:15.262Z,6.54
2019-05-26T03:39:15.215Z,6.55
2019-05-26T03:40:15.172Z,6.58
2019-05-26T03:41:15.135Z,6.49
2019-05-26T03:42:15.119Z,6.36
2019-05-26T03:43:15.054Z,6.21
2019-05-26T03:44:15.016Z,6.06
2019-05-26T03:45:14.978Z,6.04
2019-05-26T03:46:14.957Z,6.06
2019-05-26T03:47:16.823Z,6.21
2019-05-26T03:48:14.854Z,6.31
2019-05-26T03:49:14.865Z,6.33
2019-05-26T03:50:14.813Z,6.36
2019-05-26T03:51:14.759Z,6.27
2019-05-26T03:52:14.724Z,6.33
2019-05-26T03:53:14.672Z,6.30
2019-05-26T03:54:14.645Z,6.48
2019-05-26T03:55:14.596Z,6.41
2019-05-26T03:56:14.564Z,6.51
2019-05-26T03:57:14.555Z,6.49
2019-05-26T03:58:14.556Z,6.46
2019-05-26T03:59:14.427Z,6.56
2019-05-26T04:00:14.388Z,6.55
2019-05-26T04:01:14.374Z,6.58
2019-05-26T04:02:14.317Z,6.87
2019-05-26T04:03:14.269Z,7.23
2019-05-26T04:04:14.226Z,7.45
2019-05-26T04:05:14.177Z,7.72
2019-05-26T04:06:14.137Z,8.10
2019-05-26T04:07:14.098Z,8.22
2019-05-26T04:08:14.053Z,8.40
2019-05-26T04:09:14.025Z,8.66
2019-05-26T04:10:13.973Z,8.73
2019-05-26T04:11:13.947Z,8.76
2019-05-26T04:12:13.904Z,8.92
2019-05-26T04:13:13.873Z,9.10
2019-05-26T04:14:13.823Z,9.35
2019-05-26T04:15:13.779Z,9.64
2019-05-26T04:16:13.738Z,9.96
2019-05-26T04:17:13.802Z,10.22
2019-05-26T04:18:13.668Z,10.27
2019-05-26T04:19:13.665Z,10.22
2019-05-26T04:20:13.617Z,9.94
2019-05-26T04:21:13.572Z,9.64
2019-05-26T04:22:13.565Z,9.23
2019-05-26T04:23:13.490Z,9.14
2019-05-26T04:24:13.520Z,8.89
2019-05-26T04:25:13.438Z,8.81
2019-05-26T04:26:13.440Z,8.80
2019-05-26T04:27:13.347Z,8.84
2019-05-26T04:28:13.338Z,9.13
2019-05-26T04:29:13.272Z,9.20
2019-05-26T04:30:13.250Z,9.36
2019-05-26T04:31:13.227Z,9.69
2019-05-26T04:32:13.140Z,10.11
2019-05-26T04:33:13.128Z,10.53
2019-05-26T04:34:13.091Z,10.73
2019-05-26T04:35:13.065Z,10.89
2019-05-26T04:36:12.981Z,11.32
2019-05-26T04:37:12.956Z,11.58
2019-05-26T04:38:12.930Z,11.91
2019-05-26T04:39:12.883Z,12.23
2019-05-26T04:40:26.306Z,12.41
2019-05-26T04:41:12.813Z,12.27
2019-05-26T04:42:12.821Z,12.41
2019-05-26T04:43:14.820Z,12.72
2019-05-26T04:44:12.679Z,12.82
2019-05-26T04:45:12.655Z,12.65
2019-05-26T04:46:12.605Z,12.13
2019-05-26T04:47:12.571Z,12.02
2019-05-26T04:48:12.539Z,11.70
2019-05-26T04:49:12.510Z,11.17
2019-05-26T04:50:12.467Z,10.68
2019-05-26T04:51:12.444Z,10.71
2019-05-26T04:52:12.422Z,10.68
2019-05-26T04:53:12.386Z,10.82
2019-05-26T04:54:12.343Z,11.18
2019-05-26T04:55:12.315Z,11.55
2019-05-26T04:56:12.269Z,11.94
2019-05-26T04:57:12.276Z,12.16
2019-05-26T04:58:12.190Z,12.46
2019-05-26T04:59:12.227Z,12.85
2019-05-26T05:00:12.159Z,13.05
2019-05-26T05:01:12.107Z,13.07
2019-05-26T05:02:12.052Z,12.92
2019-05-26T05:03:12.017Z,13.05
2019-05-26T05:04:11.981Z,13.08
2019-05-26T05:05:11.947Z,13.52
2019-05-26T05:06:11.915Z,13.67
2019-05-26T05:07:11.873Z,14.18
2019-05-26T05:08:11.836Z,14.64
2019-05-26T05:09:11.810Z,14.98
2019-05-26T05:10:11.777Z,15.02
2019-05-26T05:11:11.732Z,15.47
2019-05-26T05:12:11.702Z,15.68
2019-05-26T05:13:11.672Z,15.82
2019-05-26T05:14:11.647Z,15.97
2019-05-26T05:15:11.604Z,16.01
2019-05-26T05:16:11.591Z,15.80
2019-05-26T05:17:11.537Z,15.36
2019-05-26T05:18:11.515Z,15.43
2019-05-26T05:19:11.479Z,15.67
2019-05-26T05:20:11.446Z,15.29
2019-05-26T05:21:11.409Z,14.99
2019-05-26T05:22:11.390Z,14.64
2019-05-26T05:23:11.364Z,14.69
2019-05-26T05:24:11.342Z,14.51
2019-05-26T05:25:14.877Z,14.77
2019-05-26T05:26:11.268Z,14.55
2019-05-26T05:27:11.285Z,14.21
2019-05-26T05:28:11.244Z,13.62
2019-05-26T05:29:11.208Z,13.17
2019-05-26T05:30:11.195Z,13.10
2019-05-26T05:31:11.120Z,12.93
2019-05-26T05:32:11.107Z,12.68
2019-05-26T05:33:11.071Z,12.77
2019-05-26T05:34:11.045Z,12.90
2019-05-26T05:35:11.012Z,13.05
2019-05-26T05:36:11.003Z,13.01
2019-05-26T05:37:10.917Z,13.00
2019-05-26T05:38:10.887Z,12.86
2019-05-26T05:39:10.852Z,12.87
2019-05-26T05:40:10.838Z,12.78
2019-05-26T05:41:10.795Z,12.67
2019-05-26T05:42:10.769Z,12.67
2019-05-26T05:43:10.792Z,12.62
2019-05-26T05:44:10.698Z,12.50
2019-05-26T05:45:10.708Z,12.54
2019-05-26T05:46:10.629Z,12.56
2019-05-26T05:47:10.603Z,12.59
2019-05-26T05:48:10.626Z,12.47
2019-05-26T05:49:10.549Z,12.60
2019-05-26T05:50:10.510Z,12.47
2019-05-26T05:51:10.479Z,12.72
2019-05-26T05:52:10.459Z,12.75
2019-05-26T05:53:10.435Z,12.62
2019-05-26T05:54:10.387Z,12.86
2019-05-26T05:55:10.407Z,12.89
2019-05-26T05:56:10.357Z,13.04
2019-05-26T05:57:10.347Z,12.92
2019-05-26T05:58:10.245Z,12.89
2019-05-26T05:59:10.222Z,12.87
2019-05-26T06:00:10.197Z,12.95
2019-05-26T06:01:10.162Z,13.11
2019-05-26T06:02:10.135Z,13.12
2019-05-26T06:03:10.080Z,13.42
2019-05-26T06:04:10.068Z,13.77
2019-05-26T06:05:10.064Z,14.06
2019-05-26T06:06:10.044Z,14.18
2019-05-26T06:07:09.957Z,14.10
2019-05-26T06:08:09.945Z,14.22
2019-05-26T06:09:09.921Z,14.07
2019-05-26T06:10:09.850Z,14.04
2019-05-26T06:11:16.664Z,14.04
2019-05-26T06:12:09.788Z,14.02
2019-05-26T06:13:09.763Z,14.07
2019-05-26T06:14:09.714Z,14.02
2019-05-26T06:15:09.687Z,14.17
2019-05-26T06:16:09.645Z,14.18
2019-05-26T06:17:10.600Z,14.32
2019-05-26T06:18:09.589Z,14.20
2019-05-26T06:19:09.559Z,14.20
2019-05-26T06:20:09.512Z,14.45
2019-05-26T06:21:09.477Z,14.62
2019-05-26T06:22:09.448Z,14.70
2019-05-26T06:23:09.470Z,14.91
2019-05-26T06:24:09.389Z,14.89
2019-05-26T06:25:09.379Z,14.89
2019-05-26T06:26:09.331Z,14.99
2019-05-26T06:27:09.307Z,15.11
2019-05-26T06:28:09.287Z,15.25
2019-05-26T06:29:09.222Z,15.29
2019-05-26T06:30:09.205Z,15.32
2019-05-26T06:31:09.187Z,15.27
2019-05-26T06:32:09.455Z,15.16
2019-05-26T06:33:09.103Z,15.17
2019-05-26T06:34:09.071Z,15.31
2019-05-26T06:35:09.143Z,15.41
2019-05-26T06:36:09.050Z,15.39
2019-05-26T06:37:08.971Z,15.39
2019-05-26T06:38:08.936Z,15.49
2019-05-26T06:39:08.920Z,15.62
2019-05-26T06:40:08.874Z,15.65
2019-05-26T06:41:08.826Z,15.71
2019-05-26T06:42:12.289Z,15.83
2019-05-26T06:43:08.771Z,15.78
2019-05-26T06:44:08.733Z,15.86
2019-05-26T06:45:08.698Z,16.14
2019-05-26T06:46:08.685Z,16.17
2019-05-26T06:47:08.623Z,16.28
2019-05-26T06:48:08.625Z,16.39
2019-05-26T06:49:08.566Z,16.42
2019-05-26T06:50:08.535Z,16.45
2019-05-26T06:51:08.532Z,16.66
2019-05-26T06:52:08.619Z,17.04
2019-05-26T06:53:08.431Z,17.92
2019-05-26T06:54:08.410Z,18.54
2019-05-26T06:55:08.377Z,19.26
2019-05-26T06:56:08.344Z,19.81
2019-05-26T06:57:08.364Z,20.50
2019-05-26T06:58:08.283Z,21.01
2019-05-26T06:59:08.251Z,21.42
2019-05-26T07:00:08.227Z,21.53
2019-05-26T07:01:08.231Z,21.58
2019-05-26T07:02:08.189Z,22.05
2019-05-26T07:03:08.113Z,22.42
2019-05-26T07:04:08.122Z,22.36
2019-05-26T07:05:08.135Z,22.62
2019-05-26T07:06:08.046Z,23.10
2019-05-26T07:07:08.015Z,22.64
2019-05-26T07:08:07.981Z,22.10
2019-05-26T07:09:07.986Z,21.80
2019-05-26T07:10:07.917Z,21.50
2019-05-26T07:11:07.900Z,21.84
2019-05-26T07:12:07.862Z,22.09
2019-05-26T07:13:07.829Z,22.17
2019-05-26T07:14:07.846Z,22.12
2019-05-26T07:15:07.792Z,22.52
2019-05-26T07:16:07.772Z,22.60
2019-05-26T07:17:07.732Z,22.43
2019-05-26T07:18:07.709Z,22.20
2019-05-26T07:19:07.684Z,22.42
2019-05-26T07:20:07.649Z,22.75
2019-05-26T07:21:07.650Z,23.02
2019-05-26T07:22:07.607Z,23.07
2019-05-26T07:23:08.497Z,22.76
2019-05-26T07:24:07.575Z,23.16
2019-05-26T07:25:07.529Z,23.36
2019-05-26T07:26:07.525Z,23.32
2019-05-26T07:27:07.517Z,23.43
2019-05-26T07:28:07.488Z,23.36
2019-05-26T07:29:07.433Z,23.27
2019-05-26T07:30:07.411Z,23.80
2019-05-26T07:31:07.399Z,24.09
2019-05-26T07:32:07.383Z,23.47
2019-05-26T07:33:07.351Z,23.05
2019-05-26T07:34:07.312Z,23.04
2019-05-26T07:35:07.284Z,22.49
2019-05-26T07:36:07.302Z,22.43
2019-05-26T07:37:07.254Z,22.43
2019-05-26T07:38:07.247Z,22.94
2019-05-26T07:39:07.244Z,23.47
2019-05-26T07:40:07.193Z,24.22
2019-05-26T07:41:07.176Z,24.50
2019-05-26T07:42:10.691Z,24.30
2019-05-26T07:43:07.124Z,24.85
2019-05-26T07:44:07.081Z,24.53
2019-05-26T07:45:07.071Z,25.18
2019-05-26T07:46:07.076Z,25.38
2019-05-26T07:47:07.020Z,25.79
2019-05-26T07:48:07.040Z,25.77
2019-05-26T07:49:06.998Z,26.06
2019-05-26T07:50:07.065Z,26.01
2019-05-26T07:51:06.931Z,25.97
2019-05-26T07:52:06.930Z,25.51
2019-05-26T07:53:06.908Z,25.75
2019-05-26T07:54:06.876Z,26.07
2019-05-26T07:55:06.846Z,25.62
2019-05-26T07:56:06.857Z,24.71
2019-05-26T07:57:06.799Z,24.43
2019-05-26T07:58:06.834Z,24.84
2019-05-26T07:59:06.760Z,24.45
2019-05-26T08:00:06.745Z,23.73
2019-05-26T08:01:06.764Z,23.65
2019-05-26T08:02:06.701Z,22.98
2019-05-26T08:03:06.674Z,23.13
2019-05-26T08:04:06.649Z,23.39
2019-05-26T08:05:06.646Z,23.88
2019-05-26T08:06:06.660Z,24.18
2019-05-26T08:07:06.600Z,23.70
2019-05-26T08:08:12.623Z,23.28
2019-05-26T08:09:06.526Z,23.31
2019-05-26T08:10:06.528Z,23.72
2019-05-26T08:11:06.513Z,23.57
2019-05-26T08:12:06.479Z,23.63
2019-05-26T08:13:06.434Z,23.50
2019-05-26T08:14:06.417Z,23.20
2019-05-26T08:15:06.399Z,22.64
2019-05-26T08:16:06.363Z,23.35
2019-05-26T08:17:06.359Z,24.09
2019-05-26T08:18:06.382Z,24.39
2019-05-26T08:19:06.306Z,24.13
2019-05-26T08:20:06.285Z,24.45
2019-05-26T08:21:06.287Z,24.53
2019-05-26T08:22:06.265Z,24.69
2019-05-26T08:23:06.229Z,24.45
2019-05-26T08:24:06.219Z,24.42
2019-05-26T08:25:06.195Z,24.65
2019-05-26T08:26:06.149Z,24.30
2019-05-26T08:27:06.215Z,23.79
2019-05-26T08:28:06.123Z,23.70
2019-05-26T08:29:06.179Z,24.30
2019-05-26T08:30:06.095Z,24.42
2019-05-26T08:31:06.048Z,24.47
2019-05-26T08:32:06.048Z,24.45
2019-05-26T08:33:05.996Z,24.53
2019-05-26T08:34:06.021Z,25.21
2019-05-26T08:35:05.950Z,25.90
2019-05-26T08:36:05.957Z,26.18
2019-05-26T08:37:05.909Z,26.09
2019-05-26T08:38:05.930Z,26.05
2019-05-26T08:39:06.066Z,26.15
2019-05-26T08:40:05.851Z,25.72
2019-05-26T08:41:05.842Z,24.81
2019-05-26T08:42:05.808Z,25.03
2019-05-26T08:43:05.791Z,24.27
2019-05-26T08:44:05.835Z,24.03
2019-05-26T08:45:05.787Z,24.20
2019-05-26T08:46:05.737Z,24.13
2019-05-26T08:47:05.714Z,24.16
2019-05-26T08:48:05.692Z,23.55
2019-05-26T08:49:05.653Z,24.22
2019-05-26T08:50:05.659Z,23.98
2019-05-26T08:51:05.603Z,24.53
2019-05-26T08:52:05.578Z,24.40
2019-05-26T08:53:05.556Z,24.60
2019-05-26T08:54:05.534Z,23.98
2019-05-26T08:55:05.520Z,24.77
2019-05-26T08:56:05.499Z,25.14
2019-05-26T08:57:05.486Z,24.88
2019-05-26T08:58:05.498Z,24.67
2019-05-26T08:59:05.430Z,24.78
2019-05-26T09:00:05.426Z,25.35
2019-05-26T09:01:05.386Z,24.85
2019-05-26T09:02:05.368Z,24.31
2019-05-26T09:03:05.348Z,24.13
2019-05-26T09:04:05.365Z,24.68
2019-05-26T09:05:05.299Z,25.20
2019-05-26T09:06:05.276Z,25.30
2019-05-26T09:07:05.251Z,24.64
2019-05-26T09:08:08.058Z,24.69
2019-05-26T09:09:05.192Z,24.39
2019-05-26T09:10:05.203Z,24.32
2019-05-26T09:11:05.224Z,23.42
2019-05-26T09:12:05.143Z,23.94
2019-05-26T09:13:05.125Z,23.36
2019-05-26T09:14:05.079Z,23.80
2019-05-26T09:15:05.062Z,24.50
2019-05-26T09:16:05.073Z,25.08
2019-05-26T09:17:05.036Z,25.40
2019-05-26T09:18:04.992Z,25.45
2019-05-26T09:19:04.967Z,25.69
2019-05-26T09:20:04.968Z,24.93
2019-05-26T09:21:04.921Z,23.53
2019-05-26T09:22:04.914Z,23.75
2019-05-26T09:23:04.901Z,23.50
2019-05-26T09:24:04.860Z,23.66
2019-05-26T09:25:04.835Z,24.62
2019-05-26T09:26:04.804Z,25.28
2019-05-26T09:27:04.822Z,23.16
2019-05-26T09:28:04.836Z,23.36
2019-05-26T09:29:04.766Z,23.94
2019-05-26T09:30:04.725Z,23.32
2019-05-26T09:31:04.697Z,23.28
2019-05-26T09:32:04.693Z,23.73
2019-05-26T09:33:04.652Z,24.68
2019-05-26T09:34:04.637Z,25.30
2019-05-26T09:35:04.636Z,25.82
2019-05-26T09:36:04.603Z,26.30
2019-05-26T09:37:04.604Z,26.80
2019-05-26T09:38:04.553Z,26.97
2019-05-26T09:39:04.531Z,27.36
2019-05-26T09:40:04.534Z,26.82
2019-05-26T09:41:04.493Z,25.76
2019-05-26T09:42:04.508Z,24.83
2019-05-26T09:43:15.784Z,24.05
2019-05-26T09:44:04.421Z,24.16
2019-05-26T09:45:04.383Z,25.17
2019-05-26T09:46:04.381Z,24.99
2019-05-26T09:47:04.365Z,24.52
2019-05-26T09:48:04.337Z,24.28
2019-05-26T09:49:04.304Z,24.87
2019-05-26T09:50:04.274Z,25.40
2019-05-26T09:51:04.254Z,25.88
2019-05-26T09:52:04.239Z,25.91
2019-05-26T09:53:04.239Z,26.05
2019-05-26T09:54:04.193Z,26.01
2019-05-26T09:55:04.146Z,26.75
2019-05-26T09:56:04.133Z,27.02
2019-05-26T09:57:04.115Z,26.77
2019-05-26T09:58:04.091Z,26.17
2019-05-26T09:59:04.155Z,25.33
2019-05-26T10:00:04.044Z,24.90
2019-05-26T10:01:04.022Z,24.95
2019-05-26T10:02:04.042Z,25.13
2019-05-26T10:03:03.974Z,24.76
2019-05-26T10:04:03.958Z,25.54
2019-05-26T10:05:03.939Z,25.72
2019-05-26T10:06:03.910Z,25.55
2019-05-26T10:07:03.878Z,25.70
2019-05-26T10:08:04.722Z,25.92
2019-05-26T10:09:03.828Z,25.94
2019-05-26T10:10:03.811Z,26.40
2019-05-26T10:11:03.786Z,26.70
2019-05-26T10:12:03.825Z,27.04
2019-05-26T10:13:03.736Z,27.27
2019-05-26T10:14:03.794Z,27.31
2019-05-26T10:15:03.716Z,27.31
2019-05-26T10:16:03.674Z,27.24
2019-05-26T10:17:03.643Z,26.91
2019-05-26T10:18:03.629Z,26.91
2019-05-26T10:19:03.616Z,26.32
2019-05-26T10:20:03.587Z,25.98
2019-05-26T10:21:03.562Z,25.58
2019-05-26T10:22:03.532Z,25.50
2019-05-26T10:23:03.517Z,26.12
2019-05-26T10:24:03.494Z,26.15
2019-05-26T10:25:03.479Z,26.13
2019-05-26T10:26:03.450Z,26.09
2019-05-26T10:27:03.447Z,25.82
2019-05-26T10:28:03.399Z,25.75
2019-05-26T10:29:03.411Z,24.87
2019-05-26T10:30:03.346Z,24.25
2019-05-26T10:31:03.357Z,23.51
2019-05-26T10:32:03.397Z,23.46
2019-05-26T10:33:03.289Z,23.20
2019-05-26T10:34:03.316Z,22.76
2019-05-26T10:35:03.266Z,22.64
2019-05-26T10:36:03.246Z,23.57
2019-05-26T10:37:03.199Z,23.09
2019-05-26T10:38:03.198Z,23.65
2019-05-26T10:39:03.154Z,24.42
2019-05-26T10:40:03.126Z,24.03
2019-05-26T10:41:03.117Z,24.61
2019-05-26T10:42:03.086Z,24.50
2019-05-26T10:43:03.055Z,24.40
2019-05-26T10:44:03.050Z,23.51
2019-05-26T10:45:03.023Z,23.55
2019-05-26T10:46:03.002Z,23.72
2019-05-26T10:47:02.987Z,24.21
2019-05-26T10:48:02.984Z,24.20
2019-05-26T10:49:03.035Z,24.35
2019-05-26T10:50:02.876Z,24.64
2019-05-26T10:51:02.908Z,24.16
2019-05-26T10:52:02.859Z,23.91
2019-05-26T10:53:03.129Z,23.90
2019-05-26T10:54:02.797Z,24.20
2019-05-26T10:55:02.819Z,23.80
2019-05-26T10:56:02.753Z,23.46
2019-05-26T10:57:02.906Z,23.28
2019-05-26T10:58:02.870Z,23.22
2019-05-26T10:59:02.663Z,24.05
2019-05-26T11:00:02.674Z,24.40
2019-05-26T11:01:02.710Z,24.50
2019-05-26T11:02:02.592Z,24.78
2019-05-26T11:03:02.561Z,25.47
2019-05-26T11:04:02.617Z,25.76
2019-05-26T11:05:02.539Z,25.64
2019-05-26T11:06:02.511Z,25.72
2019-05-26T11:07:02.479Z,26.02
2019-05-26T11:08:02.449Z,26.30
2019-05-26T11:09:02.430Z,26.55
2019-05-26T11:10:02.418Z,26.28
2019-05-26T11:11:02.493Z,26.43
2019-05-26T11:12:02.424Z,25.98
2019-05-26T11:13:02.336Z,25.54
2019-05-26T11:14:03.522Z,24.52
2019-05-26T11:15:02.277Z,24.83
2019-05-26T11:16:02.267Z,24.87
2019-05-26T11:17:02.228Z,24.16
2019-05-26T11:18:02.273Z,23.95
2019-05-26T11:19:02.171Z,23.58
2019-05-26T11:20:02.182Z,23.79
2019-05-26T11:21:02.132Z,23.63
2019-05-26T11:22:02.174Z,23.61
2019-05-26T11:23:02.085Z,23.91
2019-05-26T11:24:02.068Z,24.53
2019-05-26T11:25:02.031Z,24.68
2019-05-26T11:26:02.022Z,25.10
2019-05-26T11:27:09.922Z,26.01
2019-05-26T11:28:01.985Z,26.76
2019-05-26T11:29:01.944Z,27.14
2019-05-26T11:30:01.905Z,26.66
2019-05-26T11:31:01.899Z,26.13
2019-05-26T11:32:01.909Z,25.09
2019-05-26T11:33:01.862Z,24.69
2019-05-26T11:34:01.806Z,24.10
2019-05-26T11:35:02.359Z,24.30
2019-05-26T11:36:01.784Z,24.58
2019-05-26T11:37:01.779Z,25.32
2019-05-26T11:38:01.807Z,25.38
2019-05-26T11:39:01.705Z,25.83
2019-05-26T11:40:01.696Z,26.02
2019-05-26T11:41:01.651Z,26.13
2019-05-26T11:42:12.800Z,26.29
2019-05-26T11:43:15.784Z,26.33
2019-05-26T11:44:01.574Z,26.48
2019-05-26T11:45:01.607Z,26.40
2019-05-26T11:46:01.586Z,26.35
2019-05-26T11:47:01.520Z,26.26
2019-05-26T11:48:01.501Z,26.43
2019-05-26T11:49:01.493Z,26.26
2019-05-26T11:50:01.537Z,25.77
2019-05-26T11:51:01.415Z,25.25
2019-05-26T11:52:01.396Z,24.95
2019-05-26T11:53:01.380Z,24.84
2019-05-26T11:54:01.340Z,24.20
2019-05-26T11:55:01.337Z,24.22
2019-05-26T11:56:01.311Z,23.87
2019-05-26T11:57:01.256Z,23.88
2019-05-26T11:58:01.251Z,23.48
2019-05-26T11:59:01.230Z,23.75
2019-05-26T12:00:01.371Z,24.50
2019-05-26T12:01:01.175Z,24.83
2019-05-26T12:02:01.147Z,23.68
2019-05-26T12:03:01.132Z,23.60
2019-05-26T12:04:01.141Z,23.42
2019-05-26T12:05:01.077Z,23.25
2019-05-26T12:06:01.051Z,23.53
2019-05-26T12:07:04.238Z,23.68
2019-05-26T12:08:01.009Z,24.45
2019-05-26T12:09:01.009Z,24.12
2019-05-26T12:10:00.952Z,23.70
2019-05-26T12:11:00.934Z,24.25
2019-05-26T12:12:00.944Z,24.71
2019-05-26T12:13:00.896Z,25.24
2019-05-26T12:14:00.870Z,25.62
2019-05-26T12:15:00.863Z,25.67
2019-05-26T12:16:00.850Z,25.09
2019-05-26T12:17:00.794Z,25.38
2019-05-26T12:18:00.757Z,25.23
2019-05-26T12:19:00.781Z,24.95
2019-05-26T12:20:04.704Z,24.55
2019-05-26T12:21:00.701Z,24.43
2019-05-26T12:22:00.687Z,24.30
2019-05-26T12:23:00.632Z,24.91
2019-05-26T12:24:00.602Z,25.32
2019-05-26T12:25:00.578Z,25.23
2019-05-26T12:26:00.546Z,25.38
2019-05-26T12:27:00.531Z,25.28
2019-05-26T12:28:00.506Z,25.40
2019-05-26T12:29:00.484Z,25.39
2019-05-26T12:30:00.460Z,25.61
2019-05-26T12:31:00.441Z,26.01
2019-05-26T12:32:00.479Z,25.98
2019-05-26T12:33:00.428Z,25.75
2019-05-26T12:34:00.404Z,25.24
2019-05-26T12:35:00.394Z,25.99
2019-05-26T12:36:00.324Z,26.62
2019-05-26T12:37:00.308Z,26.66
2019-05-26T12:38:00.286Z,25.85
2019-05-26T12:39:00.316Z,25.76
2019-05-26T12:40:00.245Z,25.97
2019-05-26T12:41:00.207Z,26.50
2019-05-26T12:42:00.204Z,26.51
2019-05-26T12:43:00.194Z,26.29
2019-05-26T12:44:00.156Z,26.48
2019-05-26T12:45:00.116Z,25.52
2019-05-26T12:46:00.115Z,25.14
2019-05-26T12:47:00.061Z,24.68
2019-05-26T12:48:00.039Z,24.95
2019-05-26T12:49:00.022Z,25.00
2019-05-26T12:49:59.996Z,25.00
2019-05-26T12:50:59.956Z,25.08
2019-05-26T12:51:59.940Z,25.18
2019-05-26T12:52:59.931Z,24.57
2019-05-26T12:53:59.988Z,24.69
2019-05-26T12:54:59.940Z,24.58
2019-05-26T12:55:59.881Z,24.78
2019-05-26T12:56:59.813Z,25.14
2019-05-26T12:57:59.831Z,25.17
2019-05-26T12:58:59.792Z,24.30
2019-05-26T12:59:59.785Z,24.06
2019-05-26T13:00:59.745Z,24.15